createdAt,value
2023-03-21T00:00:47.827Z,8.90
2023-03-21T00:03:16.477Z,8.90
2023-03-21T00:05:49.558Z,8.90
2023-03-21T00:08:17.381Z,8.90
2023-03-21T00:10:46.468Z,8.90
2023-03-21T00:13:16.390Z,8.90
2023-03-21T00:16:14.695Z,8.90
2023-03-21T00:18:46.202Z,8.90
2023-03-21T00:21:40.696Z,8.90
2023-03-21T00:24:04.066Z,8.90
2023-03-21T00:26:33.159Z,8.80
2023-03-21T00:29:01.073Z,8.90
2023-03-21T00:31:28.762Z,8.80
2023-03-21T00:33:56.527Z,8.80
2023-03-21T00:36:25.734Z,8.80
2023-03-21T00:38:53.816Z,8.80
2023-03-21T00:41:39.132Z,8.80
2023-03-21T00:44:11.442Z,8.80
2023-03-21T00:46:47.284Z,8.80
2023-03-21T00:49:22.197Z,8.90
2023-03-21T00:51:51.523Z,8.90
2023-03-21T00:54:19.812Z,8.90
2023-03-21T00:56:47.546Z,8.90
2023-03-21T00:59:17.227Z,8.90
2023-03-21T01:01:46.545Z,8.90
2023-03-21T01:04:16.607Z,8.90
2023-03-21T01:06:45.277Z,8.90
2023-03-21T01:09:15.249Z,8.80
2023-03-21T01:11:43.460Z,8.80
2023-03-21T01:14:22.086Z,8.80
2023-03-21T01:16:53.848Z,8.80
2023-03-21T01:19:37.574Z,8.80
2023-03-21T01:22:12.348Z,8.80
2023-03-21T01:24:50.373Z,8.80
2023-03-21T01:27:20.741Z,8.80
2023-03-21T01:29:48.458Z,8.80
2023-03-21T01:32:17.480Z,8.80
2023-03-21T01:34:45.183Z,8.80
2023-03-21T01:37:12.953Z,8.80
2023-03-21T01:39:40.629Z,8.80
2023-03-21T01:42:11.060Z,8.80
2023-03-21T01:44:53.867Z,8.80
2023-03-21T01:47:22.943Z,8.80
2023-03-21T01:49:53.404Z,8.80
2023-03-21T01:52:35.944Z,8.80
2023-03-21T01:55:07.011Z,8.80
2023-03-21T01:57:49.494Z,8.80
2023-03-21T02:00:25.123Z,8.80
2023-03-21T02:03:02.998Z,8.80
2023-03-21T02:05:44.906Z,8.80
2023-03-21T02:08:14.072Z,8.80
2023-03-21T02:10:44.804Z,8.80
2023-03-21T02:13:12.577Z,8.80
2023-03-21T02:15:44.023Z,8.80
2023-03-21T02:18:18.324Z,8.80
2023-03-21T02:21:03.758Z,8.80
2023-03-21T02:24:00.953Z,8.80
2023-03-21T02:27:03.845Z,8.80
2023-03-21T02:29:58.476Z,8.80
2023-03-21T02:32:41.347Z,8.80
2023-03-21T02:39:09.491Z,8.80
2023-03-21T02:41:45.580Z,8.80
2023-03-21T02:44:21.743Z,8.80
2023-03-21T02:47:04.670Z,8.80
2023-03-21T02:49:42.822Z,8.80
2023-03-21T02:52:22.891Z,8.80
2023-03-21T02:54:59.431Z,8.80
2023-03-21T02:57:40.058Z,8.80
2023-03-21T03:00:17.104Z,8.80
2023-03-21T03:02:46.004Z,8.80
2023-03-21T03:05:21.212Z,8.80
2023-03-21T03:08:06.850Z,8.80
2023-03-21T03:10:59.068Z,8.80
2023-03-21T03:13:38.291Z,8.80
2023-03-21T03:16:16.609Z,8.80
2023-03-21T03:18:53.447Z,8.70
2023-03-21T03:21:24.892Z,8.80
2023-03-21T03:23:56.839Z,8.70
2023-03-21T03:26:32.279Z,8.70
2023-03-21T03:29:04.245Z,8.70
2023-03-21T03:31:37.407Z,8.70
2023-03-21T03:34:09.893Z,8.70
2023-03-21T03:36:41.398Z,8.70
2023-03-21T03:39:11.184Z,8.70
2023-03-21T03:42:06.046Z,8.70
2023-03-21T03:44:33.514Z,8.70
2023-03-21T03:47:05.996Z,8.70
2023-03-21T03:49:38.220Z,8.70
2023-03-21T03:52:10.968Z,8.70
2023-03-21T03:54:42.344Z,8.70
2023-03-21T03:57:13.759Z,8.70
2023-03-21T03:59:43.688Z,8.70
2023-03-21T04:02:11.911Z,8.70
2023-03-21T04:04:40.009Z,8.70
2023-03-21T04:07:07.763Z,8.70
2023-03-21T04:09:44.101Z,8.70
2023-03-21T04:12:14.008Z,8.60
2023-03-21T04:14:47.178Z,8.60
2023-03-21T04:17:15.566Z,8.60
2023-03-21T04:19:43.652Z,8.50
2023-03-21T04:22:12.241Z,8.50
2023-03-21T04:24:41.236Z,8.50
2023-03-21T04:27:09.078Z,8.50
2023-03-21T04:29:38.152Z,8.40
2023-03-21T04:32:19.643Z,8.40
2023-03-21T04:34:49.947Z,8.40
2023-03-21T04:37:18.955Z,8.40
2023-03-21T04:39:47.620Z,8.40
2023-03-21T04:42:16.047Z,8.40
2023-03-21T04:44:45.335Z,8.40
2023-03-21T04:47:15.763Z,8.30
2023-03-21T04:49:43.592Z,8.30
2023-03-21T04:52:11.328Z,8.30
2023-03-21T04:54:39.054Z,8.40
2023-03-21T04:57:06.797Z,8.40
2023-03-21T04:59:34.795Z,8.40
2023-03-21T05:02:03.924Z,8.40
2023-03-21T05:04:31.710Z,8.40
2023-03-21T05:06:59.730Z,8.40
2023-03-21T05:09:27.668Z,8.40
2023-03-21T05:11:55.432Z,8.40
2023-03-21T05:14:26.135Z,8.40
2023-03-21T05:16:56.291Z,8.40
2023-03-21T05:19:34.591Z,8.40
2023-03-21T05:22:04.568Z,8.40
2023-03-21T05:24:33.636Z,8.40
2023-03-21T05:27:02.526Z,8.30
2023-03-21T05:29:31.376Z,8.40
2023-03-21T05:32:00.302Z,8.30
2023-03-21T05:34:30.785Z,8.40
2023-03-21T05:36:58.490Z,8.40
2023-03-21T05:39:26.196Z,8.40
2023-03-21T05:41:53.894Z,8.40
2023-03-21T05:44:21.595Z,8.40
2023-03-21T05:46:49.384Z,8.40
2023-03-21T05:49:17.100Z,8.40
2023-03-21T05:51:46.159Z,8.40
2023-03-21T05:54:16.575Z,8.40
2023-03-21T05:56:44.454Z,8.40
2023-03-21T05:59:12.169Z,8.50
2023-03-21T06:01:39.854Z,8.50
2023-03-21T06:04:07.673Z,8.50
2023-03-21T06:06:35.492Z,8.50
2023-03-21T06:09:04.780Z,8.50
2023-03-21T06:11:34.042Z,8.50
2023-03-21T06:14:01.787Z,8.50
2023-03-21T06:16:30.428Z,8.50
2023-03-21T06:18:58.142Z,8.60
2023-03-21T06:21:26.942Z,8.60
2023-03-21T06:23:54.759Z,8.60
2023-03-21T06:26:23.966Z,8.60
2023-03-21T06:28:52.004Z,8.60
2023-03-21T06:31:22.425Z,8.60
2023-03-21T06:33:51.520Z,8.60
2023-03-21T06:36:20.114Z,8.60
2023-03-21T06:38:48.545Z,8.60
2023-03-21T06:41:17.082Z,8.60
2023-03-21T06:43:48.292Z,8.60
2023-03-21T06:46:16.013Z,8.60
2023-03-21T06:48:45.283Z,8.60
2023-03-21T06:51:13.687Z,8.60
2023-03-21T06:53:41.929Z,8.60
2023-03-21T06:56:11.250Z,8.60
2023-03-21T06:58:39.331Z,8.60
2023-03-21T07:01:09.270Z,8.60
2023-03-21T07:03:37.779Z,8.60
2023-03-21T07:06:06.937Z,8.60
2023-03-21T07:08:34.681Z,8.60
2023-03-21T07:11:02.492Z,8.60
2023-03-21T07:13:30.339Z,8.70
2023-03-21T07:15:58.147Z,8.70
2023-03-21T07:18:27.245Z,8.70
2023-03-21T07:20:55.199Z,8.70
2023-03-21T07:23:25.679Z,8.70
2023-03-21T07:25:54.505Z,8.70
2023-03-21T07:28:23.160Z,8.80
2023-03-21T07:30:54.803Z,8.80
2023-03-21T07:33:23.224Z,8.80
2023-03-21T07:35:53.080Z,8.80
2023-03-21T07:38:22.055Z,8.90
2023-03-21T07:40:50.413Z,8.90
2023-03-21T07:45:51.304Z,8.90
2023-03-21T07:48:19.444Z,9.00
2023-03-21T07:50:47.181Z,9.00
2023-03-21T07:53:16.240Z,9.00
2023-03-21T07:55:43.942Z,9.00
2023-03-21T07:58:11.672Z,9.10
2023-03-21T08:00:39.490Z,9.10
2023-03-21T08:03:07.244Z,9.10
2023-03-21T08:05:37.477Z,9.10
2023-03-21T08:08:06.320Z,9.10
2023-03-21T08:10:35.928Z,9.10
2023-03-21T08:13:04.160Z,9.20
2023-03-21T08:15:32.057Z,9.20
2023-03-21T08:18:00.389Z,9.30
2023-03-21T08:20:28.452Z,9.40
2023-03-21T08:22:56.234Z,9.40
2023-03-21T08:25:24.500Z,9.40
2023-03-21T08:27:53.854Z,9.40
2023-03-21T08:30:23.679Z,9.40
2023-03-21T08:32:51.644Z,9.40
2023-03-21T08:35:20.585Z,9.40
2023-03-21T08:37:48.678Z,9.40
2023-03-21T08:40:18.704Z,9.40
2023-03-21T08:42:47.389Z,9.40
2023-03-21T08:45:18.214Z,9.40
2023-03-21T08:47:46.785Z,9.30
2023-03-21T08:50:17.348Z,9.30
2023-03-21T08:52:45.630Z,9.30
2023-03-21T08:55:14.423Z,9.30
2023-03-21T08:57:42.667Z,9.30
2023-03-21T09:00:14.432Z,9.30
2023-03-21T09:02:44.509Z,9.30
2023-03-21T09:05:13.002Z,9.30
2023-03-21T09:07:42.003Z,9.30
2023-03-21T09:10:20.646Z,9.30
2023-03-21T09:12:50.971Z,9.30
2023-03-21T09:15:21.502Z,9.30
2023-03-21T09:17:52.866Z,9.30
2023-03-21T09:20:25.818Z,9.40
2023-03-21T09:22:54.165Z,9.40
2023-03-21T09:25:21.929Z,9.40
2023-03-21T09:27:49.799Z,9.40
2023-03-21T09:30:19.698Z,9.40
2023-03-21T09:32:48.464Z,9.40
2023-03-21T09:35:18.772Z,9.40
2023-03-21T09:37:47.257Z,9.40
2023-03-21T09:40:21.182Z,9.50
2023-03-21T09:42:59.834Z,9.50
2023-03-21T09:45:37.049Z,9.50
2023-03-21T09:48:07.628Z,9.60
2023-03-21T09:50:39.574Z,9.60
2023-03-21T09:53:15.300Z,9.60
2023-03-21T09:55:44.439Z,9.60
2023-03-21T09:58:26.016Z,9.60
2023-03-21T10:00:59.678Z,9.60
2023-03-21T10:03:34.896Z,9.60
2023-03-21T10:06:08.365Z,9.60
2023-03-21T10:08:38.632Z,9.70
2023-03-21T10:11:13.405Z,9.70
2023-03-21T10:13:47.389Z,9.70
2023-03-21T10:16:16.920Z,9.70
2023-03-21T10:18:46.771Z,9.70
2023-03-21T10:21:47.520Z,9.80
2023-03-21T10:24:12.875Z,9.80
2023-03-21T10:26:41.143Z,9.80
2023-03-21T10:29:11.287Z,9.80
2023-03-21T10:31:39.220Z,9.80
2023-03-21T10:34:14.581Z,9.80
2023-03-21T10:36:43.797Z,9.90
2023-03-21T10:39:22.607Z,9.90
2023-03-21T10:41:50.342Z,9.90
2023-03-21T10:44:19.605Z,9.90
2023-03-21T10:46:53.918Z,9.90
2023-03-21T10:49:22.443Z,9.90
2023-03-21T10:51:54.020Z,9.90
2023-03-21T10:54:26.854Z,9.90
2023-03-21T10:56:59.274Z,9.90
2023-03-21T10:59:30.084Z,9.90
2023-03-21T11:01:58.646Z,9.90
2023-03-21T11:04:30.366Z,10.00
2023-03-21T11:07:02.070Z,10.00
2023-03-21T11:09:47.025Z,10.00
2023-03-21T11:12:17.986Z,10.00
2023-03-21T11:14:47.695Z,10.00
2023-03-21T11:17:28.296Z,10.00
2023-03-21T11:19:59.808Z,10.10
2023-03-21T11:22:32.057Z,10.10
2023-03-21T11:25:01.427Z,10.20
2023-03-21T11:27:30.578Z,10.20
2023-03-21T11:30:01.572Z,10.30
2023-03-21T11:32:34.771Z,10.30
2023-03-21T11:35:05.944Z,10.30
2023-03-21T11:37:40.568Z,10.40
2023-03-21T11:40:21.216Z,10.40
2023-03-21T11:42:51.799Z,10.40
2023-03-21T11:45:23.726Z,10.40
2023-03-21T11:47:54.000Z,10.50
2023-03-21T11:50:29.000Z,10.50
2023-03-21T11:53:11.505Z,10.50
2023-03-21T11:55:47.194Z,10.50
2023-03-21T11:58:31.283Z,10.50
2023-03-21T12:01:09.093Z,10.50
2023-03-21T12:04:04.986Z,10.50
2023-03-21T12:06:37.732Z,10.60
2023-03-21T12:09:22.769Z,10.60
2023-03-21T12:12:01.214Z,10.60
2023-03-21T12:14:36.124Z,10.60
2023-03-21T12:17:12.762Z,10.50
2023-03-21T12:19:58.007Z,10.50
2023-03-21T12:22:34.226Z,10.50
2023-03-21T12:25:10.376Z,10.50
2023-03-21T12:27:46.065Z,10.40
2023-03-21T12:30:39.143Z,10.40
2023-03-21T12:33:33.907Z,10.40
2023-03-21T12:36:16.365Z,10.30
2023-03-21T12:38:50.252Z,10.30
2023-03-21T12:41:25.484Z,10.20
2023-03-21T12:43:59.424Z,10.20
2023-03-21T12:46:33.758Z,10.20
2023-03-21T12:49:04.159Z,10.20
2023-03-21T12:51:34.349Z,10.10
2023-03-21T12:54:14.202Z,10.10
2023-03-21T12:56:49.000Z,10.10
2023-03-21T12:59:24.591Z,10.10
2023-03-21T13:01:56.889Z,10.10
2023-03-21T13:04:41.466Z,10.10
2023-03-21T13:07:11.559Z,10.10
2023-03-21T13:09:41.860Z,10.10
2023-03-21T13:12:26.731Z,10.10
2023-03-21T13:15:23.660Z,10.10
2023-03-21T13:17:57.840Z,10.10
2023-03-21T13:20:32.029Z,10.20
2023-03-21T13:23:00.513Z,10.20
2023-03-21T13:25:33.113Z,10.20
2023-03-21T13:28:06.306Z,10.20
2023-03-21T13:30:35.234Z,10.20
2023-03-21T13:33:08.306Z,10.20
2023-03-21T13:35:39.063Z,10.30
2023-03-21T13:38:14.922Z,10.30
2023-03-21T13:40:46.266Z,10.30
2023-03-21T13:43:41.023Z,10.30
2023-03-21T13:46:11.592Z,10.30
2023-03-21T13:49:00.430Z,10.20
2023-03-21T13:51:44.709Z,10.20
2023-03-21T13:54:24.229Z,10.20
2023-03-21T13:56:54.588Z,10.20
2023-03-21T13:59:40.874Z,10.10
2023-03-21T14:02:31.352Z,10.20
2023-03-21T14:05:06.861Z,10.10
2023-03-21T14:07:36.598Z,10.10
2023-03-21T14:10:09.432Z,10.10
2023-03-21T14:12:41.868Z,10.20
2023-03-21T14:15:20.313Z,10.20
2023-03-21T14:17:53.845Z,10.20
2023-03-21T14:20:24.058Z,10.20
2023-03-21T14:22:51.821Z,10.20
2023-03-21T14:25:24.372Z,10.30
2023-03-21T14:27:55.710Z,10.30
2023-03-21T14:30:27.636Z,10.30
2023-03-21T14:32:57.500Z,10.40
2023-03-21T14:35:31.109Z,10.40
2023-03-21T14:38:02.316Z,10.40
2023-03-21T14:40:30.610Z,10.50
2023-03-21T14:42:59.517Z,10.50
2023-03-21T14:45:30.683Z,10.50
2023-03-21T14:48:00.576Z,10.50
2023-03-21T14:50:35.688Z,10.50
2023-03-21T14:53:04.220Z,10.50
2023-03-21T14:55:32.083Z,10.50
2023-03-21T14:57:59.958Z,10.50
2023-03-21T15:00:31.408Z,10.50
2023-03-21T15:03:00.665Z,10.60
2023-03-21T15:05:31.949Z,10.60
2023-03-21T15:08:01.646Z,10.60
2023-03-21T15:10:32.458Z,10.60
2023-03-21T15:13:02.333Z,10.60
2023-03-21T15:15:33.831Z,10.70
2023-03-21T15:18:07.149Z,10.70
2023-03-21T15:20:38.486Z,10.70
2023-03-21T15:23:12.730Z,10.70
2023-03-21T15:25:41.426Z,10.70
2023-03-21T15:28:12.257Z,10.80
2023-03-21T15:30:49.251Z,10.80
2023-03-21T15:33:18.424Z,10.90
2023-03-21T15:35:53.739Z,10.90
2023-03-21T15:38:30.424Z,10.90
2023-03-21T15:41:29.768Z,11.00
2023-03-21T15:44:03.952Z,11.00
2023-03-21T15:46:42.693Z,11.00
2023-03-21T15:49:18.860Z,11.00
2023-03-21T15:51:50.331Z,11.00
2023-03-21T15:54:24.487Z,11.10
2023-03-21T15:56:55.815Z,11.10
2023-03-21T15:59:27.950Z,11.00
2023-03-21T16:01:57.230Z,11.00
2023-03-21T16:04:26.098Z,11.00
2023-03-21T16:06:58.796Z,11.00
2023-03-21T16:09:26.988Z,11.00
2023-03-21T16:11:56.148Z,11.00
2023-03-21T16:14:27.614Z,11.00
2023-03-21T16:16:58.920Z,11.00
2023-03-21T16:19:29.496Z,11.00
2023-03-21T16:21:57.191Z,11.00
2023-03-21T16:24:24.899Z,11.00
2023-03-21T16:26:53.864Z,11.00
2023-03-21T16:29:22.424Z,11.00
2023-03-21T16:31:50.254Z,11.00
2023-03-21T16:34:19.337Z,11.00
2023-03-21T16:36:47.896Z,11.00
2023-03-21T16:39:19.156Z,10.90
2023-03-21T16:41:47.653Z,10.90
2023-03-21T16:44:15.573Z,10.90
2023-03-21T16:46:43.650Z,10.90
2023-03-21T16:49:20.906Z,10.90
2023-03-21T16:51:48.711Z,10.90
2023-03-21T16:54:16.450Z,10.90
2023-03-21T16:56:47.332Z,10.90
2023-03-21T16:59:15.725Z,10.90
2023-03-21T17:01:46.093Z,10.90
2023-03-21T17:04:14.737Z,10.90
2023-03-21T17:06:45.897Z,10.90
2023-03-21T17:09:15.423Z,10.90
2023-03-21T17:11:43.742Z,10.80
2023-03-21T17:14:13.196Z,10.80
2023-03-21T17:16:42.889Z,10.80
2023-03-21T17:19:15.747Z,10.80
2023-03-21T17:21:44.905Z,10.80
2023-03-21T17:24:12.859Z,10.70
2023-03-21T17:26:40.976Z,10.70
2023-03-21T17:29:13.676Z,10.70
2023-03-21T17:31:42.284Z,10.70
2023-03-21T17:34:10.900Z,10.70
2023-03-21T17:36:40.360Z,10.60
2023-03-21T17:39:13.730Z,10.60
2023-03-21T17:41:41.466Z,10.60
2023-03-21T17:44:09.191Z,10.60
2023-03-21T17:46:38.105Z,10.60
2023-03-21T17:49:06.700Z,10.60
2023-03-21T17:51:34.626Z,10.60
2023-03-21T17:54:02.996Z,10.60
2023-03-21T17:56:34.335Z,10.60
2023-03-21T17:59:04.680Z,10.60
2023-03-21T18:01:32.874Z,10.50
2023-03-21T18:04:03.723Z,10.60
2023-03-21T18:06:33.618Z,10.50
2023-03-21T18:09:06.646Z,10.50
2023-03-21T18:11:35.713Z,10.50
2023-03-21T18:14:15.466Z,10.50
2023-03-21T18:16:44.045Z,10.50
2023-03-21T18:19:13.076Z,10.50
2023-03-21T18:21:44.680Z,10.50
2023-03-21T18:24:12.867Z,10.40
2023-03-21T18:26:41.950Z,10.40
2023-03-21T18:30:13.069Z,10.40
2023-03-21T18:32:06.422Z,10.40
2023-03-21T18:34:35.332Z,10.40
2023-03-21T18:37:04.349Z,10.40
2023-03-21T18:39:32.963Z,10.40
2023-03-21T18:42:03.738Z,10.40
2023-03-21T18:44:38.986Z,10.40
2023-03-21T18:47:07.631Z,10.30
2023-03-21T18:52:23.650Z,10.30
2023-03-21T18:54:51.413Z,10.30
2023-03-21T18:57:38.615Z,10.30
2023-03-21T19:00:12.503Z,10.30
2023-03-21T19:02:47.542Z,10.30
2023-03-21T19:05:17.550Z,10.30
2023-03-21T19:07:46.056Z,10.30
2023-03-21T19:10:19.599Z,10.20
2023-03-21T19:12:49.587Z,10.20
2023-03-21T19:15:19.504Z,10.20
2023-03-21T19:18:26.468Z,10.20
2023-03-21T19:20:35.318Z,10.20
2023-03-21T19:23:03.191Z,10.20
2023-03-21T19:25:31.004Z,10.20
2023-03-21T19:28:00.124Z,10.20
2023-03-21T19:30:27.996Z,10.20
2023-03-21T19:32:55.960Z,10.20
2023-03-21T19:35:23.743Z,10.20
2023-03-21T19:37:51.575Z,10.20
2023-03-21T19:40:19.783Z,10.20
2023-03-21T19:42:47.555Z,10.20
2023-03-21T19:45:16.664Z,10.20
2023-03-21T19:47:44.485Z,10.20
2023-03-21T19:50:49.141Z,10.20
2023-03-21T19:53:00.550Z,10.10
2023-03-21T19:55:28.311Z,10.10
2023-03-21T19:57:56.069Z,10.10
2023-03-21T20:00:25.354Z,10.10
2023-03-21T20:02:53.528Z,10.10
2023-03-21T20:05:22.013Z,10.10
2023-03-21T20:07:49.954Z,10.10
2023-03-21T20:10:17.719Z,10.10
2023-03-21T20:12:46.007Z,10.10
2023-03-21T20:15:20.891Z,10.10
2023-03-21T20:17:50.996Z,10.10
2023-03-21T20:20:19.712Z,10.10
2023-03-21T20:23:08.004Z,10.10
2023-03-21T20:25:39.675Z,10.10
2023-03-21T20:28:16.198Z,10.10
2023-03-21T20:30:49.215Z,10.10
2023-03-21T20:33:18.588Z,10.10
2023-03-21T20:36:29.408Z,10.10
2023-03-21T20:38:35.540Z,10.10
2023-03-21T20:41:05.121Z,10.10
2023-03-21T20:46:21.252Z,10.10
2023-03-21T20:48:50.779Z,10.10
2023-03-21T20:54:08.653Z,10.10
2023-03-21T20:56:36.882Z,10.10
2023-03-21T20:59:17.379Z,10.10
2023-03-21T21:01:45.590Z,10.10
2023-03-21T21:04:19.694Z,10.10
2023-03-21T21:06:47.955Z,10.10
2023-03-21T21:09:15.916Z,10.10
2023-03-21T21:14:31.670Z,10.00
2023-03-21T21:17:07.711Z,10.00
2023-03-21T21:19:49.557Z,10.00
2023-03-21T21:22:17.645Z,9.90
2023-03-21T21:24:45.699Z,9.90
2023-03-21T21:27:13.704Z,9.90
2023-03-21T21:29:43.116Z,9.90
2023-03-21T21:32:11.228Z,9.90
2023-03-21T21:34:39.260Z,9.80
2023-03-21T21:37:08.457Z,9.80
2023-03-21T21:39:37.856Z,9.80
2023-03-21T21:42:05.792Z,9.80
2023-03-21T21:44:33.588Z,9.80
2023-03-21T21:47:04.098Z,9.80
2023-03-21T21:49:32.259Z,9.80
2023-03-21T21:52:03.877Z,9.80
2023-03-21T21:54:34.218Z,9.80
2023-03-21T21:57:02.015Z,9.80
2023-03-21T21:59:29.766Z,9.80
2023-03-21T22:01:58.430Z,9.70
2023-03-21T22:04:27.689Z,9.70
2023-03-21T22:06:55.894Z,9.70
2023-03-21T22:09:24.012Z,9.70
2023-03-21T22:11:53.089Z,9.60
2023-03-21T22:14:20.954Z,9.60
2023-03-21T22:16:48.804Z,9.60
2023-03-21T22:19:16.572Z,9.60
2023-03-21T22:21:44.289Z,9.60
2023-03-21T22:24:12.071Z,9.50
2023-03-21T22:26:39.965Z,9.50
2023-03-21T22:29:10.444Z,9.50
2023-03-21T22:31:41.671Z,9.50
2023-03-21T22:34:09.649Z,9.40
2023-03-21T22:36:37.453Z,9.40
2023-03-21T22:39:05.186Z,9.40
2023-03-21T22:41:32.969Z,9.40
2023-03-21T22:44:00.681Z,9.40
2023-03-21T22:46:29.790Z,9.30
2023-03-21T22:48:57.555Z,9.40
2023-03-21T22:51:25.279Z,9.30
2023-03-21T22:53:53.093Z,9.30
2023-03-21T22:56:20.796Z,9.30
2023-03-21T22:58:48.587Z,9.30
2023-03-21T23:01:16.389Z,9.20
2023-03-21T23:03:45.545Z,9.30
2023-03-21T23:06:13.262Z,9.20
2023-03-21T23:08:41.063Z,9.20
2023-03-21T23:11:10.476Z,9.20
2023-03-21T23:13:41.112Z,9.20
2023-03-21T23:16:09.756Z,9.20
2023-03-21T23:18:38.473Z,9.20
2023-03-21T23:21:12.995Z,9.20
2023-03-21T23:23:43.593Z,9.20
2023-03-21T23:26:11.930Z,9.20
2023-03-21T23:28:39.835Z,9.20
2023-03-21T23:31:08.954Z,9.20
2023-03-21T23:33:36.938Z,9.20
2023-03-21T23:36:05.172Z,9.20
2023-03-21T23:38:34.796Z,9.20
2023-03-21T23:41:04.607Z,9.20
2023-03-21T23:43:32.377Z,9.20
2023-03-21T23:46:00.299Z,9.20
2023-03-21T23:48:28.836Z,9.20
2023-03-21T23:50:56.899Z,9.20
2023-03-21T23:53:24.953Z,9.20
2023-03-21T23:55:58.219Z,9.20
2023-03-21T23:58:28.569Z,9.20
